sensor_id;sensor_type;location;lat;lon;timestamp;pressure;altitude;pressure_sealevel;temperature
24714;BMP280;12820;51.580;5.010;2022-08-19T00:04:38;101335.28;;;21.00
24714;BMP280;12820;51.580;5.010;2022-08-19T00:09:42;101336.31;;;20.97
24714;BMP280;12820;51.580;5.010;2022-08-19T00:14:44;101335.72;;;20.92
24714;BMP280;12820;51.580;5.010;2022-08-19T00:19:46;101332.56;;;20.87
24714;BMP280;12820;51.580;5.010;2022-08-19T00:24:48;101330.13;;;20.84
24714;BMP280;12820;51.580;5.010;2022-08-19T00:29:52;101324.28;;;20.82
24714;BMP280;12820;51.580;5.010;2022-08-19T00:34:54;101321.81;;;20.81
24714;BMP280;12820;51.580;5.010;2022-08-19T00:39:56;101336.31;;;20.80
24714;BMP280;12820;51.580;5.010;2022-08-19T00:44:58;101330.59;;;20.75
24714;BMP280;12820;51.580;5.010;2022-08-19T00:50:00;101328.19;;;20.72
24714;BMP280;12820;51.580;5.010;2022-08-19T00:55:05;101331.75;;;20.68
24714;BMP280;12820;51.580;5.010;2022-08-19T01:00:13;101335.34;;;20.64
24714;BMP280;12820;51.580;5.010;2022-08-19T01:05:19;101326.25;;;20.59
24714;BMP280;12820;51.580;5.010;2022-08-19T01:10:28;101334.13;;;20.55
24714;BMP280;12820;51.580;5.010;2022-08-19T01:15:46;101334.34;;;20.50
24714;BMP280;12820;51.580;5.010;2022-08-19T01:20:51;101332.06;;;20.45
24714;BMP280;12820;51.580;5.010;2022-08-19T01:25:53;101333.09;;;20.41
24714;BMP280;12820;51.580;5.010;2022-08-19T01:30:59;101335.81;;;20.38
24714;BMP280;12820;51.580;5.010;2022-08-19T01:36:16;101329.25;;;20.32
24714;BMP280;12820;51.580;5.010;2022-08-19T01:41:23;101336.25;;;20.28
24714;BMP280;12820;51.580;5.010;2022-08-19T01:46:25;101334.75;;;20.24
24714;BMP280;12820;51.580;5.010;2022-08-19T01:51:27;101339.06;;;20.22
24714;BMP280;12820;51.580;5.010;2022-08-19T01:56:39;101341.00;;;20.17
24714;BMP280;12820;51.580;5.010;2022-08-19T02:01:41;101337.72;;;20.15
24714;BMP280;12820;51.580;5.010;2022-08-19T02:06:43;101348.81;;;20.14
24714;BMP280;12820;51.580;5.010;2022-08-19T02:11:45;101350.59;;;20.12
24714;BMP280;12820;51.580;5.010;2022-08-19T02:16:48;101357.41;;;20.11
24714;BMP280;12820;51.580;5.010;2022-08-19T02:21:50;101366.81;;;20.11
24714;BMP280;12820;51.580;5.010;2022-08-19T02:26:52;101358.41;;;20.09
24714;BMP280;12820;51.580;5.010;2022-08-19T02:31:54;101353.44;;;20.06
24714;BMP280;12820;51.580;5.010;2022-08-19T02:36:56;101350.09;;;20.04
24714;BMP280;12820;51.580;5.010;2022-08-19T02:42:04;101358.66;;;20.03
24714;BMP280;12820;51.580;5.010;2022-08-19T02:47:06;101363.00;;;20.01
24714;BMP280;12820;51.580;5.010;2022-08-19T02:52:08;101355.47;;;19.98
24714;BMP280;12820;51.580;5.010;2022-08-19T02:57:11;101336.03;;;19.96
24714;BMP280;12820;51.580;5.010;2022-08-19T03:02:13;101353.28;;;19.91
24714;BMP280;12820;51.580;5.010;2022-08-19T03:07:17;101341.53;;;19.87
24714;BMP280;12820;51.580;5.010;2022-08-19T03:12:20;101344.28;;;19.83
24714;BMP280;12820;51.580;5.010;2022-08-19T03:17:22;101336.81;;;19.78
24714;BMP280;12820;51.580;5.010;2022-08-19T03:22:24;101341.28;;;19.74
24714;BMP280;12820;51.580;5.010;2022-08-19T03:27:27;101358.44;;;19.70
24714;BMP280;12820;51.580;5.010;2022-08-19T03:32:35;101350.31;;;19.62
24714;BMP280;12820;51.580;5.010;2022-08-19T03:37:46;101353.09;;;19.57
24714;BMP280;12820;51.580;5.010;2022-08-19T03:42:48;101356.75;;;19.50
24714;BMP280;12820;51.580;5.010;2022-08-19T03:47:51;101354.50;;;19.44
24714;BMP280;12820;51.580;5.010;2022-08-19T03:52:53;101346.09;;;19.40
24714;BMP280;12820;51.580;5.010;2022-08-19T03:57:55;101353.94;;;19.36
24714;BMP280;12820;51.580;5.010;2022-08-19T04:03:00;101349.13;;;19.30
24714;BMP280;12820;51.580;5.010;2022-08-19T04:08:03;101355.22;;;19.26
24714;BMP280;12820;51.580;5.010;2022-08-19T04:13:14;101356.25;;;19.22
24714;BMP280;12820;51.580;5.010;2022-08-19T04:18:16;101346.22;;;19.18
24714;BMP280;12820;51.580;5.010;2022-08-19T04:23:19;101345.53;;;19.15
24714;BMP280;12820;51.580;5.010;2022-08-19T04:28:22;101345.63;;;19.12
24714;BMP280;12820;51.580;5.010;2022-08-19T04:33:25;101343.22;;;19.09
24714;BMP280;12820;51.580;5.010;2022-08-19T04:38:29;101339.16;;;19.05
24714;BMP280;12820;51.580;5.010;2022-08-19T04:43:32;101346.00;;;19.03
24714;BMP280;12820;51.580;5.010;2022-08-19T04:48:35;101352.06;;;19.01
24714;BMP280;12820;51.580;5.010;2022-08-19T04:53:45;101357.22;;;18.99
24714;BMP280;12820;51.580;5.010;2022-08-19T04:58:48;101357.22;;;18.99
24714;BMP280;12820;51.580;5.010;2022-08-19T05:03:52;101369.97;;;18.99
24714;BMP280;12820;51.580;5.010;2022-08-19T05:08:54;101366.63;;;18.97
24714;BMP280;12820;51.580;5.010;2022-08-19T05:13:57;101377.72;;;18.96
24714;BMP280;12820;51.580;5.010;2022-08-19T05:19:00;101385.38;;;18.96
24714;BMP280;12820;51.580;5.010;2022-08-19T05:24:22;101386.22;;;18.97
24714;BMP280;12820;51.580;5.010;2022-08-19T05:29:26;101387.00;;;18.97
24714;BMP280;12820;51.580;5.010;2022-08-19T05:34:37;101386.03;;;19.01
24714;BMP280;12820;51.580;5.010;2022-08-19T05:39:42;101387.56;;;19.05
24714;BMP280;12820;51.580;5.010;2022-08-19T05:44:49;101388.22;;;19.10
24714;BMP280;12820;51.580;5.010;2022-08-19T05:49:51;101383.63;;;19.18
24714;BMP280;12820;51.580;5.010;2022-08-19T05:54:53;101373.16;;;19.25
24714;BMP280;12820;51.580;5.010;2022-08-19T05:59:58;101386.25;;;19.36
24714;BMP280;12820;51.580;5.010;2022-08-19T06:05:03;101388.38;;;19.46
24714;BMP280;12820;51.580;5.010;2022-08-19T06:10:09;101386.41;;;19.54
24714;BMP280;12820;51.580;5.010;2022-08-19T06:15:13;101382.56;;;19.63
24714;BMP280;12820;51.580;5.010;2022-08-19T06:20:16;101382.03;;;19.75
24714;BMP280;12820;51.580;5.010;2022-08-19T06:25:39;101381.53;;;19.87
24714;BMP280;12820;51.580;5.010;2022-08-19T06:30:42;101388.59;;;20.00
24714;BMP280;12820;51.580;5.010;2022-08-19T06:35:45;101388.00;;;20.13
24714;BMP280;12820;51.580;5.010;2022-08-19T06:40:47;101393.47;;;20.24
24714;BMP280;12820;51.580;5.010;2022-08-19T06:45:49;101392.94;;;20.35
24714;BMP280;12820;51.580;5.010;2022-08-19T06:50:54;101392.47;;;20.46
24714;BMP280;12820;51.580;5.010;2022-08-19T06:55:57;101394.31;;;20.60
24714;BMP280;12820;51.580;5.010;2022-08-19T07:01:03;101396.19;;;20.75
24714;BMP280;12820;51.580;5.010;2022-08-19T07:06:13;101399.69;;;20.90
24714;BMP280;12820;51.580;5.010;2022-08-19T07:11:37;101404.16;;;21.03
24714;BMP280;12820;51.580;5.010;2022-08-19T07:16:39;101405.56;;;21.10
24714;BMP280;12820;51.580;5.010;2022-08-19T07:21:48;101405.19;;;21.18
24714;BMP280;12820;51.580;5.010;2022-08-19T07:26:53;101410.84;;;21.24
24714;BMP280;12820;51.580;5.010;2022-08-19T07:31:56;101416.41;;;21.32
24714;BMP280;12820;51.580;5.010;2022-08-19T07:37:02;101411.13;;;21.35
24714;BMP280;12820;51.580;5.010;2022-08-19T07:42:08;101412.34;;;21.44
24714;BMP280;12820;51.580;5.010;2022-08-19T07:47:14;101410.69;;;21.60
24714;BMP280;12820;51.580;5.010;2022-08-19T07:52:37;101406.41;;;21.77
24714;BMP280;12820;51.580;5.010;2022-08-19T07:57:41;101417.97;;;21.85
24714;BMP280;12820;51.580;5.010;2022-08-19T08:02:43;101436.69;;;21.86
24714;BMP280;12820;51.580;5.010;2022-08-19T08:07:45;101434.16;;;21.86
24714;BMP280;12820;51.580;5.010;2022-08-19T08:13:07;101433.31;;;21.85
24714;BMP280;12820;51.580;5.010;2022-08-19T08:18:11;101428.03;;;21.88
24714;BMP280;12820;51.580;5.010;2022-08-19T08:23:15;101439.41;;;21.99
24714;BMP280;12820;51.580;5.010;2022-08-19T08:28:31;101446.59;;;22.08
24714;BMP280;12820;51.580;5.010;2022-08-19T08:33:33;101446.31;;;22.14
24714;BMP280;12820;51.580;5.010;2022-08-19T08:38:36;101460.53;;;22.19
24714;BMP280;12820;51.580;5.010;2022-08-19T08:43:45;101459.38;;;22.25
24714;BMP280;12820;51.580;5.010;2022-08-19T08:48:57;101455.59;;;22.31
24714;BMP280;12820;51.580;5.010;2022-08-19T08:54:06;101458.50;;;22.41
24714;BMP280;12820;51.580;5.010;2022-08-19T09:04:22;101459.69;;;22.67
24714;BMP280;12820;51.580;5.010;2022-08-19T09:09:34;101457.03;;;22.83
24714;BMP280;12820;51.580;5.010;2022-08-19T09:14:57;101452.56;;;23.02
24714;BMP280;12820;51.580;5.010;2022-08-19T09:25:15;101469.50;;;23.19
24714;BMP280;12820;51.580;5.010;2022-08-19T09:30:20;101474.81;;;23.32
24714;BMP280;12820;51.580;5.010;2022-08-19T09:35:26;101479.69;;;23.36
24714;BMP280;12820;51.580;5.010;2022-08-19T09:40:30;101474.97;;;23.44
24714;BMP280;12820;51.580;5.010;2022-08-19T09:45:39;101469.97;;;23.56
24714;BMP280;12820;51.580;5.010;2022-08-19T09:50:41;101462.69;;;23.77
24714;BMP280;12820;51.580;5.010;2022-08-19T09:55:54;101457.13;;;24.00
24714;BMP280;12820;51.580;5.010;2022-08-19T10:00:58;101455.28;;;24.15
24714;BMP280;12820;51.580;5.010;2022-08-19T10:06:02;101455.84;;;24.34
24714;BMP280;12820;51.580;5.010;2022-08-19T10:11:05;101458.31;;;24.49
24714;BMP280;12820;51.580;5.010;2022-08-19T10:16:27;101455.88;;;24.61
24714;BMP280;12820;51.580;5.010;2022-08-19T10:21:32;101465.84;;;24.79
24714;BMP280;12820;51.580;5.010;2022-08-19T10:26:38;101460.06;;;24.89
24714;BMP280;12820;51.580;5.010;2022-08-19T10:31:40;101452.75;;;25.35
24714;BMP280;12820;51.580;5.010;2022-08-19T10:37:03;101452.22;;;25.68
24714;BMP280;12820;51.580;5.010;2022-08-19T10:42:11;101439.63;;;25.89
24714;BMP280;12820;51.580;5.010;2022-08-19T10:47:15;101441.41;;;26.13
24714;BMP280;12820;51.580;5.010;2022-08-19T10:52:25;101440.75;;;26.58
24714;BMP280;12820;51.580;5.010;2022-08-19T10:57:39;101435.25;;;26.63
24714;BMP280;12820;51.580;5.010;2022-08-19T11:03:02;101431.53;;;27.47
24714;BMP280;12820;51.580;5.010;2022-08-19T11:08:04;101430.63;;;27.26
24714;BMP280;12820;51.580;5.010;2022-08-19T11:13:23;101445.28;;;26.90
24714;BMP280;12820;51.580;5.010;2022-08-19T11:18:26;101434.94;;;26.79
24714;BMP280;12820;51.580;5.010;2022-08-19T11:23:28;101441.94;;;26.77
24714;BMP280;12820;51.580;5.010;2022-08-19T11:28:31;101428.75;;;27.05
24714;BMP280;12820;51.580;5.010;2022-08-19T11:33:33;101424.91;;;27.10
24714;BMP280;12820;51.580;5.010;2022-08-19T11:38:36;101420.69;;;27.09
24714;BMP280;12820;51.580;5.010;2022-08-19T11:43:38;101429.69;;;27.04
24714;BMP280;12820;51.580;5.010;2022-08-19T11:48:42;101412.91;;;26.86
24714;BMP280;12820;51.580;5.010;2022-08-19T11:53:44;101424.94;;;26.75
24714;BMP280;12820;51.580;5.010;2022-08-19T11:58:47;101424.53;;;26.56
24714;BMP280;12820;51.580;5.010;2022-08-19T12:03:52;101435.50;;;26.36
24714;BMP280;12820;51.580;5.010;2022-08-19T12:08:59;101432.13;;;26.23
24714;BMP280;12820;51.580;5.010;2022-08-19T12:14:02;101431.38;;;26.09
24714;BMP280;12820;51.580;5.010;2022-08-19T12:19:04;101432.13;;;25.99
24714;BMP280;12820;51.580;5.010;2022-08-19T12:24:07;101429.63;;;26.09
24714;BMP280;12820;51.580;5.010;2022-08-19T12:29:09;101431.50;;;26.07
24714;BMP280;12820;51.580;5.010;2022-08-19T12:34:11;101426.75;;;26.02
24714;BMP280;12820;51.580;5.010;2022-08-19T12:39:13;101418.78;;;26.04
24714;BMP280;12820;51.580;5.010;2022-08-19T12:44:15;101419.00;;;26.26
24714;BMP280;12820;51.580;5.010;2022-08-19T12:49:20;101413.13;;;26.24
24714;BMP280;12820;51.580;5.010;2022-08-19T12:54:42;101421.19;;;26.07
24714;BMP280;12820;51.580;5.010;2022-08-19T12:59:45;101413.94;;;26.24
24714;BMP280;12820;51.580;5.010;2022-08-19T13:04:47;101410.94;;;26.55
24714;BMP280;12820;51.580;5.010;2022-08-19T13:09:51;101412.56;;;26.91
24714;BMP280;12820;51.580;5.010;2022-08-19T13:14:54;101407.25;;;27.50
24714;BMP280;12820;51.580;5.010;2022-08-19T13:19:56;101394.78;;;27.78
24714;BMP280;12820;51.580;5.010;2022-08-19T13:24:59;101394.59;;;28.23
24714;BMP280;12820;51.580;5.010;2022-08-19T13:30:03;101380.13;;;29.05
24714;BMP280;12820;51.580;5.010;2022-08-19T13:35:24;101387.63;;;29.49
24714;BMP280;12820;51.580;5.010;2022-08-19T13:40:26;101373.34;;;29.55
24714;BMP280;12820;51.580;5.010;2022-08-19T13:45:30;101369.84;;;29.85
24714;BMP280;12820;51.580;5.010;2022-08-19T13:50:41;101363.75;;;29.75
24714;BMP280;12820;51.580;5.010;2022-08-19T13:55:44;101357.91;;;29.53
24714;BMP280;12820;51.580;5.010;2022-08-19T14:00:46;101351.78;;;29.34
24714;BMP280;12820;51.580;5.010;2022-08-19T14:05:50;101346.09;;;29.40
24714;BMP280;12820;51.580;5.010;2022-08-19T14:10:52;101346.03;;;29.51
24714;BMP280;12820;51.580;5.010;2022-08-19T14:15:54;101340.78;;;29.42
24714;BMP280;12820;51.580;5.010;2022-08-19T14:20:56;101336.53;;;29.21
24714;BMP280;12820;51.580;5.010;2022-08-19T14:26:07;101339.47;;;28.96
24714;BMP280;12820;51.580;5.010;2022-08-19T14:31:13;101341.03;;;28.88
24714;BMP280;12820;51.580;5.010;2022-08-19T14:36:19;101331.50;;;28.89
24714;BMP280;12820;51.580;5.010;2022-08-19T14:41:23;101340.25;;;28.77
24714;BMP280;12820;51.580;5.010;2022-08-19T14:46:26;101358.03;;;28.49
24714;BMP280;12820;51.580;5.010;2022-08-19T14:51:31;101368.38;;;27.96
24714;BMP280;12820;51.580;5.010;2022-08-19T15:01:35;101369.00;;;27.21
24714;BMP280;12820;51.580;5.010;2022-08-19T15:06:37;101367.47;;;27.19
24714;BMP280;12820;51.580;5.010;2022-08-19T15:11:39;101360.34;;;27.22
24714;BMP280;12820;51.580;5.010;2022-08-19T15:16:42;101360.44;;;27.21
24714;BMP280;12820;51.580;5.010;2022-08-19T15:21:44;101368.22;;;27.09
24714;BMP280;12820;51.580;5.010;2022-08-19T15:26:46;101375.44;;;26.93
24714;BMP280;12820;51.580;5.010;2022-08-19T15:31:48;101380.44;;;26.72
24714;BMP280;12820;51.580;5.010;2022-08-19T15:36:52;101378.91;;;26.46
24714;BMP280;12820;51.580;5.010;2022-08-19T15:41:54;101378.78;;;26.23
24714;BMP280;12820;51.580;5.010;2022-08-19T15:46:56;101385.72;;;26.11
24714;BMP280;12820;51.580;5.010;2022-08-19T15:51:59;101382.22;;;26.00
24714;BMP280;12820;51.580;5.010;2022-08-19T15:57:04;101385.53;;;25.89
24714;BMP280;12820;51.580;5.010;2022-08-19T16:02:26;101375.19;;;25.77
24714;BMP280;12820;51.580;5.010;2022-08-19T16:07:47;101394.56;;;25.70
24714;BMP280;12820;51.580;5.010;2022-08-19T16:12:49;101410.19;;;25.67
24714;BMP280;12820;51.580;5.010;2022-08-19T16:17:52;101411.13;;;25.66
24714;BMP280;12820;51.580;5.010;2022-08-19T16:22:58;101419.38;;;25.71
24714;BMP280;12820;51.580;5.010;2022-08-19T16:28:00;101418.84;;;25.66
24714;BMP280;12820;51.580;5.010;2022-08-19T16:33:09;101405.25;;;25.65
24714;BMP280;12820;51.580;5.010;2022-08-19T16:38:11;101415.88;;;25.60
24714;BMP280;12820;51.580;5.010;2022-08-19T16:43:13;101408.63;;;25.53
24714;BMP280;12820;51.580;5.010;2022-08-19T16:48:15;101404.53;;;25.50
24714;BMP280;12820;51.580;5.010;2022-08-19T16:53:19;101404.81;;;25.58
24714;BMP280;12820;51.580;5.010;2022-08-19T16:58:23;101397.72;;;25.62
24714;BMP280;12820;51.580;5.010;2022-08-19T17:03:30;101401.75;;;25.66
24714;BMP280;12820;51.580;5.010;2022-08-19T17:08:38;101403.09;;;25.71
24714;BMP280;12820;51.580;5.010;2022-08-19T17:13:40;101399.28;;;25.76
24714;BMP280;12820;51.580;5.010;2022-08-19T17:18:44;101396.41;;;25.81
24714;BMP280;12820;51.580;5.010;2022-08-19T17:23:47;101400.09;;;25.77
24714;BMP280;12820;51.580;5.010;2022-08-19T17:28:51;101392.91;;;25.69
24714;BMP280;12820;51.580;5.010;2022-08-19T17:33:53;101397.00;;;25.60
24714;BMP280;12820;51.580;5.010;2022-08-19T17:38:59;101404.59;;;25.49
24714;BMP280;12820;51.580;5.010;2022-08-19T17:44:02;101393.25;;;25.39
24714;BMP280;12820;51.580;5.010;2022-08-19T17:49:04;101401.50;;;25.32
24714;BMP280;12820;51.580;5.010;2022-08-19T17:54:13;101401.34;;;25.21
24714;BMP280;12820;51.580;5.010;2022-08-19T17:59:16;101411.66;;;25.08
24714;BMP280;12820;51.580;5.010;2022-08-19T18:04:18;101415.28;;;24.92
24714;BMP280;12820;51.580;5.010;2022-08-19T18:09:23;101416.25;;;24.77
24714;BMP280;12820;51.580;5.010;2022-08-19T18:14:33;101423.09;;;24.64
24714;BMP280;12820;51.580;5.010;2022-08-19T18:19:37;101425.53;;;24.52
24714;BMP280;12820;51.580;5.010;2022-08-19T18:24:43;101433.16;;;24.40
24714;BMP280;12820;51.580;5.010;2022-08-19T18:29:47;101450.25;;;24.27
24714;BMP280;12820;51.580;5.010;2022-08-19T18:34:49;101450.13;;;24.15
24714;BMP280;12820;51.580;5.010;2022-08-19T18:39:52;101455.00;;;24.06
24714;BMP280;12820;51.580;5.010;2022-08-19T18:45:12;101470.38;;;23.92
24714;BMP280;12820;51.580;5.010;2022-08-19T18:50:33;101473.44;;;23.84
24714;BMP280;12820;51.580;5.010;2022-08-19T18:55:36;101490.38;;;23.72
24714;BMP280;12820;51.580;5.010;2022-08-19T19:00:38;101484.94;;;23.63
24714;BMP280;12820;51.580;5.010;2022-08-19T19:05:41;101497.38;;;23.55
24714;BMP280;12820;51.580;5.010;2022-08-19T19:10:45;101492.66;;;23.48
24714;BMP280;12820;51.580;5.010;2022-08-19T19:15:52;101491.38;;;23.41
24714;BMP280;12820;51.580;5.010;2022-08-19T19:20:56;101490.78;;;23.36
24714;BMP280;12820;51.580;5.010;2022-08-19T19:25:58;101500.31;;;23.34
24714;BMP280;12820;51.580;5.010;2022-08-19T19:31:01;101507.34;;;23.31
24714;BMP280;12820;51.580;5.010;2022-08-19T19:36:04;101512.66;;;23.28
24714;BMP280;12820;51.580;5.010;2022-08-19T19:41:06;101518.78;;;23.26
24714;BMP280;12820;51.580;5.010;2022-08-19T19:46:08;101515.53;;;23.22
24714;BMP280;12820;51.580;5.010;2022-08-19T19:51:11;101520.00;;;23.19
24714;BMP280;12820;51.580;5.010;2022-08-19T19:56:14;101516.75;;;23.15
24714;BMP280;12820;51.580;5.010;2022-08-19T20:01:16;101518.59;;;23.14
24714;BMP280;12820;51.580;5.010;2022-08-19T20:06:26;101518.72;;;23.11
24714;BMP280;12820;51.580;5.010;2022-08-19T20:11:48;101522.81;;;22.99
24714;BMP280;12820;51.580;5.010;2022-08-19T20:16:54;101525.03;;;22.90
24714;BMP280;12820;51.580;5.010;2022-08-19T20:21:57;101528.06;;;22.81
24714;BMP280;12820;51.580;5.010;2022-08-19T20:27:00;101520.84;;;22.73
24714;BMP280;12820;51.580;5.010;2022-08-19T20:32:03;101521.09;;;22.68
24714;BMP280;12820;51.580;5.010;2022-08-19T20:37:05;101520.50;;;22.63
24714;BMP280;12820;51.580;5.010;2022-08-19T20:42:09;101519.00;;;22.60
24714;BMP280;12820;51.580;5.010;2022-08-19T20:47:12;101515.03;;;22.54
24714;BMP280;12820;51.580;5.010;2022-08-19T20:52:14;101510.03;;;22.51
24714;BMP280;12820;51.580;5.010;2022-08-19T20:57:16;101511.00;;;22.49
24714;BMP280;12820;51.580;5.010;2022-08-19T21:02:18;101515.47;;;22.45
24714;BMP280;12820;51.580;5.010;2022-08-19T21:07:20;101516.47;;;22.43
24714;BMP280;12820;51.580;5.010;2022-08-19T21:12:27;101511.41;;;22.42
24714;BMP280;12820;51.580;5.010;2022-08-19T21:17:29;101500.41;;;22.40
24714;BMP280;12820;51.580;5.010;2022-08-19T21:22:31;101499.72;;;22.36
24714;BMP280;12820;51.580;5.010;2022-08-19T21:27:33;101507.50;;;22.35
24714;BMP280;12820;51.580;5.010;2022-08-19T21:32:35;101519.56;;;22.33
24714;BMP280;12820;51.580;5.010;2022-08-19T21:37:37;101529.88;;;22.31
24714;BMP280;12820;51.580;5.010;2022-08-19T21:42:39;101521.53;;;22.28
24714;BMP280;12820;51.580;5.010;2022-08-19T21:47:42;101528.44;;;22.26
24714;BMP280;12820;51.580;5.010;2022-08-19T21:52:44;101534.47;;;22.25
24714;BMP280;12820;51.580;5.010;2022-08-19T21:57:47;101543.09;;;22.24
24714;BMP280;12820;51.580;5.010;2022-08-19T22:02:50;101534.56;;;22.24
24714;BMP280;12820;51.580;5.010;2022-08-19T22:07:54;101532.06;;;22.22
24714;BMP280;12820;51.580;5.010;2022-08-19T22:13:00;101542.31;;;22.22
24714;BMP280;12820;51.580;5.010;2022-08-19T22:18:03;101545.78;;;22.21
24714;BMP280;12820;51.580;5.010;2022-08-19T22:23:06;101543.22;;;22.21
24714;BMP280;12820;51.580;5.010;2022-08-19T22:28:10;101550.06;;;22.21
24714;BMP280;12820;51.580;5.010;2022-08-19T22:33:15;101540.81;;;22.18
24714;BMP280;12820;51.580;5.010;2022-08-19T22:38:17;101543.44;;;22.17
24714;BMP280;12820;51.580;5.010;2022-08-19T22:43:26;101546.06;;;22.15
24714;BMP280;12820;51.580;5.010;2022-08-19T22:48:31;101533.38;;;22.14
24714;BMP280;12820;51.580;5.010;2022-08-19T22:53:35;101538.63;;;22.11
24714;BMP280;12820;51.580;5.010;2022-08-19T22:58:37;101541.28;;;22.09
24714;BMP280;12820;51.580;5.010;2022-08-19T23:03:41;101532.00;;;22.07
24714;BMP280;12820;51.580;5.010;2022-08-19T23:08:43;101540.59;;;22.06
24714;BMP280;12820;51.580;5.010;2022-08-19T23:13:45;101539.06;;;22.02
24714;BMP280;12820;51.580;5.010;2022-08-19T23:18:47;101539.25;;;21.99
24714;BMP280;12820;51.580;5.010;2022-08-19T23:23:56;101553.94;;;21.96
24714;BMP280;12820;51.580;5.010;2022-08-19T23:28:58;101531.91;;;21.92
24714;BMP280;12820;51.580;5.010;2022-08-19T23:34:19;101529.47;;;21.90
24714;BMP280;12820;51.580;5.010;2022-08-19T23:39:21;101537.25;;;21.88
24714;BMP280;12820;51.580;5.010;2022-08-19T23:44:23;101532.25;;;21.86
24714;BMP280;12820;51.580;5.010;2022-08-19T23:49:26;101530.59;;;21.85
24714;BMP280;12820;51.580;5.010;2022-08-19T23:54:28;101534.03;;;21.84
24714;BMP280;12820;51.580;5.010;2022-08-19T23:59:44;101537.50;;;21.83
